sensor_id;sensor_type;location;lat;lon;timestamp;P1;durP1;ratioP1;P2;durP2;ratioP2
10260;SDS011;5175;42.606;23.388;2022-08-19T00:00:07;7.47;;;6.85;;
10260;SDS011;5175;42.606;23.388;2022-08-19T00:02:39;7.45;;;6.75;;
10260;SDS011;5175;42.606;23.388;2022-08-19T00:05:08;7.20;;;6.60;;
10260;SDS011;5175;42.606;23.388;2022-08-19T00:07:36;6.82;;;6.32;;
10260;SDS011;5175;42.606;23.388;2022-08-19T00:10:04;7.32;;;6.63;;
10260;SDS011;5175;42.606;23.388;2022-08-19T00:12:32;7.93;;;7.32;;
10260;SDS011;5175;42.606;23.388;2022-08-19T00:14:59;7.65;;;7.05;;
10260;SDS011;5175;42.606;23.388;2022-08-19T00:17:26;7.15;;;6.50;;
10260;SDS011;5175;42.606;23.388;2022-08-19T00:19:53;7.68;;;6.90;;
10260;SDS011;5175;42.606;23.388;2022-08-19T00:22:21;7.53;;;6.82;;
10260;SDS011;5175;42.606;23.388;2022-08-19T00:24:48;7.15;;;6.55;;
10260;SDS011;5175;42.606;23.388;2022-08-19T00:27:14;9.05;;;6.93;;
10260;SDS011;5175;42.606;23.388;2022-08-19T00:29:41;7.60;;;7.00;;
10260;SDS011;5175;42.606;23.388;2022-08-19T00:32:08;7.00;;;6.40;;
10260;SDS011;5175;42.606;23.388;2022-08-19T00:34:35;7.03;;;6.43;;
10260;SDS011;5175;42.606;23.388;2022-08-19T00:37:02;6.57;;;5.97;;
10260;SDS011;5175;42.606;23.388;2022-08-19T00:39:30;7.10;;;6.60;;
10260;SDS011;5175;42.606;23.388;2022-08-19T00:41:57;7.68;;;6.88;;
10260;SDS011;5175;42.606;23.388;2022-08-19T00:44:25;7.38;;;6.68;;
10260;SDS011;5175;42.606;23.388;2022-08-19T00:46:54;7.45;;;6.78;;
10260;SDS011;5175;42.606;23.388;2022-08-19T00:49:25;7.60;;;6.85;;
10260;SDS011;5175;42.606;23.388;2022-08-19T00:51:57;7.30;;;6.60;;
10260;SDS011;5175;42.606;23.388;2022-08-19T00:54:28;7.07;;;6.47;;
10260;SDS011;5175;42.606;23.388;2022-08-19T00:56:58;7.90;;;7.13;;
10260;SDS011;5175;42.606;23.388;2022-08-19T00:59:25;7.75;;;6.72;;
10260;SDS011;5175;42.606;23.388;2022-08-19T01:01:54;7.05;;;6.45;;
10260;SDS011;5175;42.606;23.388;2022-08-19T01:04:21;6.38;;;5.88;;
10260;SDS011;5175;42.606;23.388;2022-08-19T01:06:48;7.35;;;6.65;;
10260;SDS011;5175;42.606;23.388;2022-08-19T01:09:14;6.82;;;6.22;;
10260;SDS011;5175;42.606;23.388;2022-08-19T01:11:41;7.20;;;6.60;;
10260;SDS011;5175;42.606;23.388;2022-08-19T01:14:12;7.10;;;6.50;;
10260;SDS011;5175;42.606;23.388;2022-08-19T01:16:40;7.22;;;6.63;;
10260;SDS011;5175;42.606;23.388;2022-08-19T01:19:09;9.25;;;6.80;;
10260;SDS011;5175;42.606;23.388;2022-08-19T01:21:43;7.20;;;6.50;;
10260;SDS011;5175;42.606;23.388;2022-08-19T01:24:17;7.50;;;6.70;;
10260;SDS011;5175;42.606;23.388;2022-08-19T01:26:44;6.90;;;6.40;;
10260;SDS011;5175;42.606;23.388;2022-08-19T01:29:13;7.72;;;7.03;;
10260;SDS011;5175;42.606;23.388;2022-08-19T01:31:39;7.18;;;6.57;;
10260;SDS011;5175;42.606;23.388;2022-08-19T01:34:07;7.32;;;6.72;;
10260;SDS011;5175;42.606;23.388;2022-08-19T01:36:36;7.20;;;6.60;;
10260;SDS011;5175;42.606;23.388;2022-08-19T01:39:06;8.50;;;7.70;;
10260;SDS011;5175;42.606;23.388;2022-08-19T01:41:36;7.43;;;6.80;;
10260;SDS011;5175;42.606;23.388;2022-08-19T01:44:04;8.23;;;7.43;;
10260;SDS011;5175;42.606;23.388;2022-08-19T01:46:31;8.32;;;7.57;;
10260;SDS011;5175;42.606;23.388;2022-08-19T01:48:58;8.10;;;7.40;;
10260;SDS011;5175;42.606;23.388;2022-08-19T01:51:26;8.10;;;7.40;;
10260;SDS011;5175;42.606;23.388;2022-08-19T01:53:52;8.45;;;7.65;;
10260;SDS011;5175;42.606;23.388;2022-08-19T01:56:20;6.85;;;6.35;;
10260;SDS011;5175;42.606;23.388;2022-08-19T01:58:49;7.43;;;6.60;;
10260;SDS011;5175;42.606;23.388;2022-08-19T02:01:19;9.27;;;7.03;;
10260;SDS011;5175;42.606;23.388;2022-08-19T02:03:46;7.28;;;6.65;;
10260;SDS011;5175;42.606;23.388;2022-08-19T02:06:13;7.57;;;6.90;;
10260;SDS011;5175;42.606;23.388;2022-08-19T02:08:42;7.32;;;6.63;;
10260;SDS011;5175;42.606;23.388;2022-08-19T02:11:17;7.10;;;6.47;;
10260;SDS011;5175;42.606;23.388;2022-08-19T02:13:45;7.25;;;6.55;;
10260;SDS011;5175;42.606;23.388;2022-08-19T02:16:13;8.07;;;7.28;;
10260;SDS011;5175;42.606;23.388;2022-08-19T02:18:40;7.97;;;7.38;;
10260;SDS011;5175;42.606;23.388;2022-08-19T02:21:07;7.60;;;6.85;;
10260;SDS011;5175;42.606;23.388;2022-08-19T02:23:33;7.65;;;6.95;;
10260;SDS011;5175;42.606;23.388;2022-08-19T02:26:00;7.50;;;6.90;;
10260;SDS011;5175;42.606;23.388;2022-08-19T02:28:27;7.72;;;7.13;;
10260;SDS011;5175;42.606;23.388;2022-08-19T02:30:53;8.30;;;7.60;;
10260;SDS011;5175;42.606;23.388;2022-08-19T02:33:22;8.27;;;7.57;;
10260;SDS011;5175;42.606;23.388;2022-08-19T02:35:48;8.50;;;7.80;;
10260;SDS011;5175;42.606;23.388;2022-08-19T02:38:15;8.57;;;7.78;;
10260;SDS011;5175;42.606;23.388;2022-08-19T02:40:51;8.65;;;7.40;;
10260;SDS011;5175;42.606;23.388;2022-08-19T02:43:19;8.77;;;7.85;;
10260;SDS011;5175;42.606;23.388;2022-08-19T02:45:46;8.35;;;7.40;;
10260;SDS011;5175;42.606;23.388;2022-08-19T02:48:14;7.78;;;7.18;;
10260;SDS011;5175;42.606;23.388;2022-08-19T02:50:43;7.55;;;6.85;;
10260;SDS011;5175;42.606;23.388;2022-08-19T02:53:10;8.02;;;7.32;;
10260;SDS011;5175;42.606;23.388;2022-08-19T02:55:41;8.05;;;7.40;;
10260;SDS011;5175;42.606;23.388;2022-08-19T02:58:09;8.10;;;7.40;;
10260;SDS011;5175;42.606;23.388;2022-08-19T03:00:40;8.75;;;7.95;;
10260;SDS011;5175;42.606;23.388;2022-08-19T03:03:08;7.78;;;7.18;;
10260;SDS011;5175;42.606;23.388;2022-08-19T03:05:36;8.27;;;7.45;;
10260;SDS011;5175;42.606;23.388;2022-08-19T03:08:04;7.55;;;7.00;;
10260;SDS011;5175;42.606;23.388;2022-08-19T03:10:31;8.32;;;7.53;;
10260;SDS011;5175;42.606;23.388;2022-08-19T03:12:58;7.63;;;6.93;;
10260;SDS011;5175;42.606;23.388;2022-08-19T03:15:25;8.70;;;7.90;;
10260;SDS011;5175;42.606;23.388;2022-08-19T03:17:52;8.23;;;7.53;;
10260;SDS011;5175;42.606;23.388;2022-08-19T03:20:19;9.18;;;8.25;;
10260;SDS011;5175;42.606;23.388;2022-08-19T03:22:46;9.30;;;7.80;;
10260;SDS011;5175;42.606;23.388;2022-08-19T03:25:14;8.48;;;7.68;;
10260;SDS011;5175;42.606;23.388;2022-08-19T03:27:41;8.82;;;8.00;;
10260;SDS011;5175;42.606;23.388;2022-08-19T03:30:09;8.90;;;7.53;;
10260;SDS011;5175;42.606;23.388;2022-08-19T03:32:37;8.25;;;7.43;;
10260;SDS011;5175;42.606;23.388;2022-08-19T03:35:03;8.15;;;7.45;;
10260;SDS011;5175;42.606;23.388;2022-08-19T03:37:31;7.65;;;6.95;;
10260;SDS011;5175;42.606;23.388;2022-08-19T03:39:57;8.60;;;7.40;;
10260;SDS011;5175;42.606;23.388;2022-08-19T03:42:26;7.90;;;7.13;;
10260;SDS011;5175;42.606;23.388;2022-08-19T03:44:52;8.15;;;7.28;;
10260;SDS011;5175;42.606;23.388;2022-08-19T03:47:19;7.93;;;7.10;;
10260;SDS011;5175;42.606;23.388;2022-08-19T03:49:46;8.30;;;7.50;;
10260;SDS011;5175;42.606;23.388;2022-08-19T03:52:13;7.97;;;7.28;;
10260;SDS011;5175;42.606;23.388;2022-08-19T03:54:40;8.00;;;6.88;;
10260;SDS011;5175;42.606;23.388;2022-08-19T03:57:07;8.27;;;7.57;;
10260;SDS011;5175;42.606;23.388;2022-08-19T03:59:37;9.27;;;8.07;;
10260;SDS011;5175;42.606;23.388;2022-08-19T04:02:05;7.63;;;6.85;;
10260;SDS011;5175;42.606;23.388;2022-08-19T04:04:34;7.85;;;7.15;;
10260;SDS011;5175;42.606;23.388;2022-08-19T04:07:02;7.80;;;7.10;;
10260;SDS011;5175;42.606;23.388;2022-08-19T04:09:29;7.55;;;6.80;;
10260;SDS011;5175;42.606;23.388;2022-08-19T04:11:56;7.70;;;6.97;;
10260;SDS011;5175;42.606;23.388;2022-08-19T04:14:24;7.70;;;7.00;;
10260;SDS011;5175;42.606;23.388;2022-08-19T04:16:56;9.02;;;7.15;;
10260;SDS011;5175;42.606;23.388;2022-08-19T04:19:24;10.75;;;7.47;;
10260;SDS011;5175;42.606;23.388;2022-08-19T04:21:52;10.98;;;7.38;;
10260;SDS011;5175;42.606;23.388;2022-08-19T04:24:20;9.13;;;7.68;;
10260;SDS011;5175;42.606;23.388;2022-08-19T04:26:48;8.80;;;7.00;;
10260;SDS011;5175;42.606;23.388;2022-08-19T04:29:16;8.93;;;6.85;;
10260;SDS011;5175;42.606;23.388;2022-08-19T04:31:47;8.40;;;6.90;;
10260;SDS011;5175;42.606;23.388;2022-08-19T04:34:16;7.72;;;6.88;;
10260;SDS011;5175;42.606;23.388;2022-08-19T04:36:47;7.72;;;7.03;;
10260;SDS011;5175;42.606;23.388;2022-08-19T04:39:16;8.63;;;7.82;;
10260;SDS011;5175;42.606;23.388;2022-08-19T04:41:45;8.73;;;7.93;;
10260;SDS011;5175;42.606;23.388;2022-08-19T04:44:29;8.70;;;7.95;;
10260;SDS011;5175;42.606;23.388;2022-08-19T04:46:57;8.63;;;7.90;;
10260;SDS011;5175;42.606;23.388;2022-08-19T04:49:25;9.73;;;8.77;;
10260;SDS011;5175;42.606;23.388;2022-08-19T04:51:52;8.65;;;7.95;;
10260;SDS011;5175;42.606;23.388;2022-08-19T04:54:20;8.25;;;7.53;;
10260;SDS011;5175;42.606;23.388;2022-08-19T04:56:50;8.90;;;7.95;;
10260;SDS011;5175;42.606;23.388;2022-08-19T04:59:18;9.57;;;8.25;;
10260;SDS011;5175;42.606;23.388;2022-08-19T05:01:46;8.88;;;8.07;;
10260;SDS011;5175;42.606;23.388;2022-08-19T05:04:15;10.18;;;7.53;;
10260;SDS011;5175;42.606;23.388;2022-08-19T05:06:45;8.52;;;7.72;;
10260;SDS011;5175;42.606;23.388;2022-08-19T05:09:12;8.57;;;7.70;;
10260;SDS011;5175;42.606;23.388;2022-08-19T05:11:40;8.25;;;7.65;;
10260;SDS011;5175;42.606;23.388;2022-08-19T05:14:07;9.63;;;7.97;;
10260;SDS011;5175;42.606;23.388;2022-08-19T05:16:36;8.82;;;8.13;;
10260;SDS011;5175;42.606;23.388;2022-08-19T05:19:02;8.95;;;8.05;;
10260;SDS011;5175;42.606;23.388;2022-08-19T05:21:47;9.05;;;8.35;;
10260;SDS011;5175;42.606;23.388;2022-08-19T05:24:32;9.25;;;8.18;;
10260;SDS011;5175;42.606;23.388;2022-08-19T05:26:59;8.60;;;7.80;;
10260;SDS011;5175;42.606;23.388;2022-08-19T05:29:27;9.82;;;7.93;;
10260;SDS011;5175;42.606;23.388;2022-08-19T05:31:56;8.65;;;7.72;;
10260;SDS011;5175;42.606;23.388;2022-08-19T05:34:24;8.32;;;7.53;;
10260;SDS011;5175;42.606;23.388;2022-08-19T05:36:56;11.55;;;7.78;;
10260;SDS011;5175;42.606;23.388;2022-08-19T05:39:26;8.60;;;7.70;;
10260;SDS011;5175;42.606;23.388;2022-08-19T05:41:56;12.65;;;7.35;;
10260;SDS011;5175;42.606;23.388;2022-08-19T05:44:24;15.57;;;7.95;;
10260;SDS011;5175;42.606;23.388;2022-08-19T05:46:52;11.45;;;7.70;;
10260;SDS011;5175;42.606;23.388;2022-08-19T05:49:22;15.73;;;8.45;;
10260;SDS011;5175;42.606;23.388;2022-08-19T05:51:50;10.38;;;7.53;;
10260;SDS011;5175;42.606;23.388;2022-08-19T05:54:19;7.47;;;6.78;;
10260;SDS011;5175;42.606;23.388;2022-08-19T05:56:46;8.32;;;7.50;;
10260;SDS011;5175;42.606;23.388;2022-08-19T05:59:14;8.30;;;7.50;;
10260;SDS011;5175;42.606;23.388;2022-08-19T06:01:42;7.60;;;6.93;;
10260;SDS011;5175;42.606;23.388;2022-08-19T06:04:11;8.13;;;6.97;;
10260;SDS011;5175;42.606;23.388;2022-08-19T06:06:40;7.15;;;6.57;;
10260;SDS011;5175;42.606;23.388;2022-08-19T06:09:07;7.85;;;7.05;;
10260;SDS011;5175;42.606;23.388;2022-08-19T06:11:37;7.85;;;7.03;;
10260;SDS011;5175;42.606;23.388;2022-08-19T06:14:07;7.18;;;6.53;;
10260;SDS011;5175;42.606;23.388;2022-08-19T06:16:36;7.20;;;6.63;;
10260;SDS011;5175;42.606;23.388;2022-08-19T06:19:05;6.68;;;6.18;;
10260;SDS011;5175;42.606;23.388;2022-08-19T06:21:34;6.65;;;6.15;;
10260;SDS011;5175;42.606;23.388;2022-08-19T06:24:03;7.25;;;6.68;;
10260;SDS011;5175;42.606;23.388;2022-08-19T06:26:31;7.10;;;6.40;;
10260;SDS011;5175;42.606;23.388;2022-08-19T06:29:02;7.05;;;6.55;;
10260;SDS011;5175;42.606;23.388;2022-08-19T06:31:31;7.28;;;6.68;;
10260;SDS011;5175;42.606;23.388;2022-08-19T06:33:59;7.93;;;6.70;;
10260;SDS011;5175;42.606;23.388;2022-08-19T06:36:29;8.82;;;7.03;;
10260;SDS011;5175;42.606;23.388;2022-08-19T06:38:59;6.82;;;6.30;;
10260;SDS011;5175;42.606;23.388;2022-08-19T06:41:27;7.45;;;6.53;;
10260;SDS011;5175;42.606;23.388;2022-08-19T06:43:54;7.28;;;6.68;;
10260;SDS011;5175;42.606;23.388;2022-08-19T06:46:23;7.47;;;6.70;;
10260;SDS011;5175;42.606;23.388;2022-08-19T06:48:49;6.93;;;6.38;;
10260;SDS011;5175;42.606;23.388;2022-08-19T06:51:18;6.93;;;6.28;;
10260;SDS011;5175;42.606;23.388;2022-08-19T06:53:46;7.28;;;6.05;;
10260;SDS011;5175;42.606;23.388;2022-08-19T06:56:15;7.22;;;6.43;;
10260;SDS011;5175;42.606;23.388;2022-08-19T06:58:43;7.57;;;6.50;;
10260;SDS011;5175;42.606;23.388;2022-08-19T07:01:10;6.22;;;5.72;;
10260;SDS011;5175;42.606;23.388;2022-08-19T07:03:38;8.48;;;6.28;;
10260;SDS011;5175;42.606;23.388;2022-08-19T07:06:05;6.88;;;6.22;;
10260;SDS011;5175;42.606;23.388;2022-08-19T07:08:35;6.50;;;5.90;;
10260;SDS011;5175;42.606;23.388;2022-08-19T07:11:05;7.43;;;5.85;;
10260;SDS011;5175;42.606;23.388;2022-08-19T07:13:33;6.45;;;5.85;;
10260;SDS011;5175;42.606;23.388;2022-08-19T07:16:02;10.30;;;6.57;;
10260;SDS011;5175;42.606;23.388;2022-08-19T07:18:30;7.57;;;6.28;;
10260;SDS011;5175;42.606;23.388;2022-08-19T07:21:03;9.10;;;7.03;;
10260;SDS011;5175;42.606;23.388;2022-08-19T07:23:30;9.02;;;6.47;;
10260;SDS011;5175;42.606;23.388;2022-08-19T07:25:57;9.65;;;6.53;;
10260;SDS011;5175;42.606;23.388;2022-08-19T07:28:23;8.35;;;6.50;;
10260;SDS011;5175;42.606;23.388;2022-08-19T07:30:51;8.52;;;6.07;;
10260;SDS011;5175;42.606;23.388;2022-08-19T07:33:18;7.03;;;6.32;;
10260;SDS011;5175;42.606;23.388;2022-08-19T07:35:45;10.20;;;6.22;;
10260;SDS011;5175;42.606;23.388;2022-08-19T07:38:13;9.45;;;6.28;;
10260;SDS011;5175;42.606;23.388;2022-08-19T07:40:41;7.82;;;6.30;;
10260;SDS011;5175;42.606;23.388;2022-08-19T07:43:10;6.90;;;6.18;;
10260;SDS011;5175;42.606;23.388;2022-08-19T07:45:37;8.23;;;6.20;;
10260;SDS011;5175;42.606;23.388;2022-08-19T07:48:04;6.72;;;6.00;;
10260;SDS011;5175;42.606;23.388;2022-08-19T07:50:31;6.20;;;5.60;;
10260;SDS011;5175;42.606;23.388;2022-08-19T07:52:58;6.70;;;5.47;;
10260;SDS011;5175;42.606;23.388;2022-08-19T07:55:26;7.22;;;5.60;;
10260;SDS011;5175;42.606;23.388;2022-08-19T07:57:53;6.18;;;5.57;;
10260;SDS011;5175;42.606;23.388;2022-08-19T08:00:20;6.75;;;6.15;;
10260;SDS011;5175;42.606;23.388;2022-08-19T08:02:47;6.53;;;5.90;;
10260;SDS011;5175;42.606;23.388;2022-08-19T08:05:14;7.93;;;6.28;;
10260;SDS011;5175;42.606;23.388;2022-08-19T08:07:58;7.78;;;5.90;;
10260;SDS011;5175;42.606;23.388;2022-08-19T08:10:43;6.00;;;5.45;;
10260;SDS011;5175;42.606;23.388;2022-08-19T08:13:10;5.97;;;5.45;;
10260;SDS011;5175;42.606;23.388;2022-08-19T08:15:37;5.97;;;5.35;;
10260;SDS011;5175;42.606;23.388;2022-08-19T08:18:04;7.35;;;5.20;;
10260;SDS011;5175;42.606;23.388;2022-08-19T08:20:32;6.40;;;5.50;;
10260;SDS011;5175;42.606;23.388;2022-08-19T08:22:59;8.48;;;5.90;;
10260;SDS011;5175;42.606;23.388;2022-08-19T08:25:44;7.28;;;5.38;;
10260;SDS011;5175;42.606;23.388;2022-08-19T08:28:11;7.47;;;5.07;;
10260;SDS011;5175;42.606;23.388;2022-08-19T08:30:38;7.80;;;5.00;;
10260;SDS011;5175;42.606;23.388;2022-08-19T08:33:07;7.07;;;4.88;;
10260;SDS011;5175;42.606;23.388;2022-08-19T08:35:34;6.85;;;5.50;;
10260;SDS011;5175;42.606;23.388;2022-08-19T08:38:00;6.07;;;5.13;;
10260;SDS011;5175;42.606;23.388;2022-08-19T08:40:32;5.85;;;4.82;;
10260;SDS011;5175;42.606;23.388;2022-08-19T08:43:11;6.03;;;4.72;;
10260;SDS011;5175;42.606;23.388;2022-08-19T08:45:50;6.13;;;4.60;;
10260;SDS011;5175;42.606;23.388;2022-08-19T08:48:22;5.88;;;5.13;;
10260;SDS011;5175;42.606;23.388;2022-08-19T08:50:56;8.35;;;4.60;;
10260;SDS011;5175;42.606;23.388;2022-08-19T08:53:25;6.18;;;4.90;;
10260;SDS011;5175;42.606;23.388;2022-08-19T08:55:52;5.30;;;4.40;;
10260;SDS011;5175;42.606;23.388;2022-08-19T08:58:31;4.70;;;4.30;;
10260;SDS011;5175;42.606;23.388;2022-08-19T09:01:08;4.43;;;3.80;;
10260;SDS011;5175;42.606;23.388;2022-08-19T09:03:36;4.35;;;3.90;;
10260;SDS011;5175;42.606;23.388;2022-08-19T09:06:07;4.38;;;3.83;;
10260;SDS011;5175;42.606;23.388;2022-08-19T09:08:43;5.57;;;4.45;;
10260;SDS011;5175;42.606;23.388;2022-08-19T09:11:15;6.25;;;4.60;;
10260;SDS011;5175;42.606;23.388;2022-08-19T09:13:57;6.55;;;4.50;;
10260;SDS011;5175;42.606;23.388;2022-08-19T09:16:35;8.13;;;4.30;;
10260;SDS011;5175;42.606;23.388;2022-08-19T09:19:06;6.50;;;4.60;;
10260;SDS011;5175;42.606;23.388;2022-08-19T09:21:33;5.65;;;4.57;;
10260;SDS011;5175;42.606;23.388;2022-08-19T09:24:02;4.53;;;4.15;;
10260;SDS011;5175;42.606;23.388;2022-08-19T09:26:30;5.75;;;4.38;;
10260;SDS011;5175;42.606;23.388;2022-08-19T09:28:59;9.18;;;4.72;;
10260;SDS011;5175;42.606;23.388;2022-08-19T09:31:27;5.50;;;4.43;;
10260;SDS011;5175;42.606;23.388;2022-08-19T09:33:55;5.85;;;4.20;;
10260;SDS011;5175;42.606;23.388;2022-08-19T09:36:23;6.82;;;4.30;;
10260;SDS011;5175;42.606;23.388;2022-08-19T09:38:51;6.22;;;4.28;;
10260;SDS011;5175;42.606;23.388;2022-08-19T09:41:22;7.22;;;4.18;;
10260;SDS011;5175;42.606;23.388;2022-08-19T09:43:52;6.07;;;4.20;;
10260;SDS011;5175;42.606;23.388;2022-08-19T09:46:23;4.65;;;4.10;;
10260;SDS011;5175;42.606;23.388;2022-08-19T09:48:51;5.00;;;3.90;;
10260;SDS011;5175;42.606;23.388;2022-08-19T09:51:18;4.63;;;3.72;;
10260;SDS011;5175;42.606;23.388;2022-08-19T09:53:47;4.00;;;3.63;;
10260;SDS011;5175;42.606;23.388;2022-08-19T09:56:16;4.53;;;3.65;;
10260;SDS011;5175;42.606;23.388;2022-08-19T09:58:44;4.32;;;3.45;;
10260;SDS011;5175;42.606;23.388;2022-08-19T10:01:15;4.63;;;3.45;;
10260;SDS011;5175;42.606;23.388;2022-08-19T10:03:46;3.90;;;3.53;;
10260;SDS011;5175;42.606;23.388;2022-08-19T10:06:13;4.68;;;3.05;;
10260;SDS011;5175;42.606;23.388;2022-08-19T10:08:41;3.70;;;3.40;;
10260;SDS011;5175;42.606;23.388;2022-08-19T10:11:08;4.13;;;3.50;;
10260;SDS011;5175;42.606;23.388;2022-08-19T10:13:35;5.50;;;3.80;;
10260;SDS011;5175;42.606;23.388;2022-08-19T10:16:03;5.10;;;3.85;;
10260;SDS011;5175;42.606;23.388;2022-08-19T10:18:32;5.38;;;3.72;;
10260;SDS011;5175;42.606;23.388;2022-08-19T10:21:05;5.95;;;3.95;;
10260;SDS011;5175;42.606;23.388;2022-08-19T10:23:35;4.43;;;3.42;;
10260;SDS011;5175;42.606;23.388;2022-08-19T10:26:02;4.57;;;3.80;;
10260;SDS011;5175;42.606;23.388;2022-08-19T10:28:31;8.40;;;3.83;;
10260;SDS011;5175;42.606;23.388;2022-08-19T10:30:58;3.92;;;3.38;;
10260;SDS011;5175;42.606;23.388;2022-08-19T10:33:29;6.40;;;3.80;;
10260;SDS011;5175;42.606;23.388;2022-08-19T10:35:58;8.18;;;4.38;;
10260;SDS011;5175;42.606;23.388;2022-08-19T10:38:27;4.47;;;3.70;;
10260;SDS011;5175;42.606;23.388;2022-08-19T10:40:54;4.22;;;3.83;;
10260;SDS011;5175;42.606;23.388;2022-08-19T10:43:21;4.60;;;3.92;;
10260;SDS011;5175;42.606;23.388;2022-08-19T10:45:51;4.57;;;3.65;;
10260;SDS011;5175;42.606;23.388;2022-08-19T10:48:20;6.78;;;4.00;;
10260;SDS011;5175;42.606;23.388;2022-08-19T10:50:46;4.20;;;3.75;;
10260;SDS011;5175;42.606;23.388;2022-08-19T10:53:32;6.00;;;4.18;;
10260;SDS011;5175;42.606;23.388;2022-08-19T10:55:58;5.40;;;4.00;;
10260;SDS011;5175;42.606;23.388;2022-08-19T10:58:42;5.75;;;3.70;;
10260;SDS011;5175;42.606;23.388;2022-08-19T11:01:09;4.60;;;3.63;;
10260;SDS011;5175;42.606;23.388;2022-08-19T11:03:36;5.05;;;3.78;;
10260;SDS011;5175;42.606;23.388;2022-08-19T11:06:04;5.45;;;3.97;;
10260;SDS011;5175;42.606;23.388;2022-08-19T11:08:34;5.22;;;4.20;;
10260;SDS011;5175;42.606;23.388;2022-08-19T11:11:02;4.05;;;3.75;;
10260;SDS011;5175;42.606;23.388;2022-08-19T11:13:30;6.00;;;4.25;;
10260;SDS011;5175;42.606;23.388;2022-08-19T11:15:59;5.78;;;3.80;;
10260;SDS011;5175;42.606;23.388;2022-08-19T11:18:28;5.22;;;3.92;;
10260;SDS011;5175;42.606;23.388;2022-08-19T11:20:55;5.15;;;4.30;;
10260;SDS011;5175;42.606;23.388;2022-08-19T11:23:32;4.10;;;3.70;;
10260;SDS011;5175;42.606;23.388;2022-08-19T11:26:00;6.95;;;4.00;;
10260;SDS011;5175;42.606;23.388;2022-08-19T11:28:27;4.45;;;3.75;;
10260;SDS011;5175;42.606;23.388;2022-08-19T11:30:54;4.88;;;4.15;;
10260;SDS011;5175;42.606;23.388;2022-08-19T11:33:21;4.28;;;3.88;;
10260;SDS011;5175;42.606;23.388;2022-08-19T11:35:48;6.32;;;4.18;;
10260;SDS011;5175;42.606;23.388;2022-08-19T11:38:15;4.85;;;3.75;;
10260;SDS011;5175;42.606;23.388;2022-08-19T11:40:44;4.72;;;3.88;;
10260;SDS011;5175;42.606;23.388;2022-08-19T11:43:11;5.80;;;3.83;;
10260;SDS011;5175;42.606;23.388;2022-08-19T11:45:38;5.63;;;3.88;;
10260;SDS011;5175;42.606;23.388;2022-08-19T11:48:04;5.03;;;3.53;;
10260;SDS011;5175;42.606;23.388;2022-08-19T11:50:31;4.20;;;3.80;;
10260;SDS011;5175;42.606;23.388;2022-08-19T11:52:58;5.00;;;3.80;;
10260;SDS011;5175;42.606;23.388;2022-08-19T11:55:25;4.88;;;3.55;;
10260;SDS011;5175;42.606;23.388;2022-08-19T11:57:53;4.78;;;3.65;;
10260;SDS011;5175;42.606;23.388;2022-08-19T12:00:20;4.57;;;3.88;;
10260;SDS011;5175;42.606;23.388;2022-08-19T12:02:46;5.40;;;3.95;;
10260;SDS011;5175;42.606;23.388;2022-08-19T12:05:13;5.18;;;3.72;;
10260;SDS011;5175;42.606;23.388;2022-08-19T12:07:40;5.63;;;4.30;;
10260;SDS011;5175;42.606;23.388;2022-08-19T12:10:08;5.70;;;4.00;;
10260;SDS011;5175;42.606;23.388;2022-08-19T12:12:35;4.38;;;3.97;;
10260;SDS011;5175;42.606;23.388;2022-08-19T12:15:09;5.40;;;3.85;;
10260;SDS011;5175;42.606;23.388;2022-08-19T12:17:37;4.90;;;3.92;;
10260;SDS011;5175;42.606;23.388;2022-08-19T12:20:05;8.05;;;4.22;;
10260;SDS011;5175;42.606;23.388;2022-08-19T12:22:33;4.45;;;4.03;;
10260;SDS011;5175;42.606;23.388;2022-08-19T12:25:01;5.85;;;4.13;;
10260;SDS011;5175;42.606;23.388;2022-08-19T12:27:27;4.35;;;3.95;;
10260;SDS011;5175;42.606;23.388;2022-08-19T12:29:54;4.35;;;3.95;;
10260;SDS011;5175;42.606;23.388;2022-08-19T12:32:22;5.70;;;4.03;;
10260;SDS011;5175;42.606;23.388;2022-08-19T12:34:49;4.38;;;3.97;;
10260;SDS011;5175;42.606;23.388;2022-08-19T12:37:16;6.50;;;4.85;;
10260;SDS011;5175;42.606;23.388;2022-08-19T12:39:43;6.38;;;4.15;;
10260;SDS011;5175;42.606;23.388;2022-08-19T12:42:10;4.95;;;4.38;;
10260;SDS011;5175;42.606;23.388;2022-08-19T12:44:38;5.07;;;4.53;;
10260;SDS011;5175;42.606;23.388;2022-08-19T12:47:07;4.90;;;4.00;;
10260;SDS011;5175;42.606;23.388;2022-08-19T12:49:36;4.70;;;3.88;;
10260;SDS011;5175;42.606;23.388;2022-08-19T12:52:04;4.25;;;3.85;;
10260;SDS011;5175;42.606;23.388;2022-08-19T12:54:32;7.20;;;4.15;;
10260;SDS011;5175;42.606;23.388;2022-08-19T12:57:00;4.68;;;3.72;;
10260;SDS011;5175;42.606;23.388;2022-08-19T12:59:30;5.13;;;4.03;;
10260;SDS011;5175;42.606;23.388;2022-08-19T13:01:57;5.15;;;4.13;;
10260;SDS011;5175;42.606;23.388;2022-08-19T13:04:23;4.20;;;3.90;;
10260;SDS011;5175;42.606;23.388;2022-08-19T13:06:51;6.72;;;4.15;;
10260;SDS011;5175;42.606;23.388;2022-08-19T13:09:18;4.95;;;3.80;;
10260;SDS011;5175;42.606;23.388;2022-08-19T13:11:45;5.75;;;4.15;;
10260;SDS011;5175;42.606;23.388;2022-08-19T13:14:11;4.28;;;3.88;;
10260;SDS011;5175;42.606;23.388;2022-08-19T13:16:38;4.75;;;4.00;;
10260;SDS011;5175;42.606;23.388;2022-08-19T13:19:05;4.43;;;3.83;;
10260;SDS011;5175;42.606;23.388;2022-08-19T13:21:32;9.38;;;4.20;;
10260;SDS011;5175;42.606;23.388;2022-08-19T13:24:00;6.88;;;3.92;;
10260;SDS011;5175;42.606;23.388;2022-08-19T13:26:27;4.90;;;4.38;;
10260;SDS011;5175;42.606;23.388;2022-08-19T13:28:54;4.65;;;3.90;;
10260;SDS011;5175;42.606;23.388;2022-08-19T13:31:39;4.47;;;3.80;;
10260;SDS011;5175;42.606;23.388;2022-08-19T13:34:28;5.13;;;4.05;;
10260;SDS011;5175;42.606;23.388;2022-08-19T13:36:57;7.28;;;4.05;;
10260;SDS011;5175;42.606;23.388;2022-08-19T13:39:26;5.03;;;4.28;;
10260;SDS011;5175;42.606;23.388;2022-08-19T13:41:53;6.65;;;4.05;;
10260;SDS011;5175;42.606;23.388;2022-08-19T13:44:19;5.63;;;4.20;;
10260;SDS011;5175;42.606;23.388;2022-08-19T13:46:47;6.55;;;4.25;;
10260;SDS011;5175;42.606;23.388;2022-08-19T13:49:16;5.22;;;3.85;;
10260;SDS011;5175;42.606;23.388;2022-08-19T13:51:43;5.97;;;4.47;;
10260;SDS011;5175;42.606;23.388;2022-08-19T13:54:10;6.05;;;4.13;;
10260;SDS011;5175;42.606;23.388;2022-08-19T13:56:40;6.03;;;4.25;;
10260;SDS011;5175;42.606;23.388;2022-08-19T13:59:08;5.90;;;4.20;;
10260;SDS011;5175;42.606;23.388;2022-08-19T14:01:35;4.47;;;4.07;;
10260;SDS011;5175;42.606;23.388;2022-08-19T14:04:02;8.95;;;4.10;;
10260;SDS011;5175;42.606;23.388;2022-08-19T14:06:30;4.50;;;4.10;;
10260;SDS011;5175;42.606;23.388;2022-08-19T14:08:57;4.75;;;4.03;;
10260;SDS011;5175;42.606;23.388;2022-08-19T14:11:24;4.40;;;3.95;;
10260;SDS011;5175;42.606;23.388;2022-08-19T14:13:53;4.97;;;4.03;;
10260;SDS011;5175;42.606;23.388;2022-08-19T14:16:20;4.43;;;4.00;;
10260;SDS011;5175;42.606;23.388;2022-08-19T14:18:47;4.30;;;3.90;;
10260;SDS011;5175;42.606;23.388;2022-08-19T14:21:14;6.63;;;4.50;;
10260;SDS011;5175;42.606;23.388;2022-08-19T14:23:42;4.72;;;4.20;;
10260;SDS011;5175;42.606;23.388;2022-08-19T14:26:10;4.63;;;4.00;;
10260;SDS011;5175;42.606;23.388;2022-08-19T14:28:38;8.25;;;4.00;;
10260;SDS011;5175;42.606;23.388;2022-08-19T14:31:08;4.07;;;3.65;;
10260;SDS011;5175;42.606;23.388;2022-08-19T14:33:35;5.28;;;4.15;;
10260;SDS011;5175;42.606;23.388;2022-08-19T14:36:02;5.57;;;4.03;;
10260;SDS011;5175;42.606;23.388;2022-08-19T14:38:29;5.05;;;3.90;;
10260;SDS011;5175;42.606;23.388;2022-08-19T14:41:04;5.05;;;3.70;;
10260;SDS011;5175;42.606;23.388;2022-08-19T14:43:32;6.00;;;3.97;;
10260;SDS011;5175;42.606;23.388;2022-08-19T14:45:59;7.05;;;4.07;;
10260;SDS011;5175;42.606;23.388;2022-08-19T14:48:28;7.22;;;4.25;;
10260;SDS011;5175;42.606;23.388;2022-08-19T14:50:54;5.88;;;4.13;;
10260;SDS011;5175;42.606;23.388;2022-08-19T14:53:21;9.25;;;4.90;;
10260;SDS011;5175;42.606;23.388;2022-08-19T14:55:48;4.90;;;4.10;;